Aérodrome :
LOGIN :

S'inscrire | Disclaimer

   EN    FR    IT 

 










Légende :    VFR   VFR Marginal   IFR   IFR Intensif   IFR Très Intensif
Visi : 
Plafond : 
>= 8 km
>= 3000ft
5 à 8 km
1000 à 3000 ft
1500m à 5 km
500 à 1000 ft
800 à 1500m
200 à 500 ft
< 800m
< 200 ft
Symboles :   Orages  Brouillard  Fortes neiges  Fortes précipitations  Vent > 20 kt
SIGMETs :   Divers  Orages  Givrage  Turbulence  Onde Orograph.  Cendres Volcan.







- Altitude de l'aérodrome : 423 ft
- Code IATA : PIS
- Voir les cartes d'approche


LFBI - Poitiers

DERNIER METAR :
  • 192300Z AUTO 25002KT CAVOK 15/13 Q1022 NOSIG

METARs EXPIRÉS :
  • 192230Z AUTO 25003KT CAVOK 16/14 Q1022 NOSIG
  • 192200Z AUTO 26004KT CAVOK 16/13 Q1022 NOSIG
  • 192130Z AUTO 26004KT CAVOK 17/13 Q1022 NOSIG
  • 192100Z AUTO 26005KT CAVOK 17/13 Q1022 NOSIG
  • 192030Z AUTO 25005KT CAVOK 17/13 Q1022 NOSIG

TAF TAF LFBI
Valide du 19 à 18h jusqu'au 20 à 18h UTC


191700Z 1918/2018 25008KT CAVOK
BECMG 1918/1920 VRB02KT
TEMPO 2004/2010 3000 BR BKN002
PROB30
TEMPO 2004/2008 0800 FG VV///
BECMG 2012/2014 20008KT
Pas de NOTAMs connus pour ce terrain.



MET'MAP, la Météo Aéronautique d'un coup d'oeil ! - Copyright ORBIFLY Décembre 2007 - Disclaimer

ORBIFLY MET'MAP TEAM :

Programmation & Développement : Alexandra Zaïnal
Conception & Développement : Baudouin d'Aumeries
Co-Programmation & Développement : Marc-Olivier Méhu
Soutien technique & logistique : Manuel Goepfert

Contact : metmap@orbifly.com




SOURCES & CREDITS :

   NOAA